createdAt,value
2018-05-21T00:00:32.819Z,5.17
2018-05-21T00:05:41.803Z,4.70
2018-05-21T00:08:12.879Z,5.40
2018-05-21T00:10:44.259Z,5.00
2018-05-21T00:13:15.555Z,4.33
2018-05-21T00:15:46.510Z,4.90
2018-05-21T00:18:17.535Z,4.40
2018-05-21T00:20:49.076Z,5.67
2018-05-21T00:23:20.083Z,4.30
2018-05-21T00:25:51.477Z,4.90
2018-05-21T00:28:22.514Z,4.03
2018-05-21T00:30:53.863Z,4.00
2018-05-21T00:33:24.876Z,4.50
2018-05-21T00:35:56.264Z,4.17
2018-05-21T00:38:28.068Z,4.47
2018-05-21T00:40:59.275Z,4.87
2018-05-21T00:43:30.354Z,5.10
2018-05-21T00:46:01.623Z,5.60
2018-05-21T00:48:32.607Z,5.23
2018-05-21T00:51:09.727Z,5.63
2018-05-21T00:53:41.179Z,4.70
2018-05-21T00:56:12.455Z,4.90
2018-05-21T00:58:43.906Z,4.83
2018-05-21T01:01:16.399Z,4.60
2018-05-21T01:03:47.454Z,4.80
2018-05-21T01:06:18.423Z,4.60
2018-05-21T01:08:50.277Z,5.13
2018-05-21T01:11:21.283Z,5.33
2018-05-21T01:13:52.298Z,5.60
2018-05-21T01:16:23.998Z,5.57
2018-05-21T01:18:55.316Z,5.53
2018-05-21T01:21:26.359Z,5.17
2018-05-21T01:23:57.670Z,4.77
2018-05-21T01:26:28.599Z,4.80
2018-05-21T01:29:00.003Z,5.67
2018-05-21T01:31:31.338Z,5.30
2018-05-21T01:34:02.363Z,4.80
2018-05-21T01:36:36.371Z,4.90
2018-05-21T01:39:08.827Z,5.20
2018-05-21T01:41:39.842Z,5.10
2018-05-21T01:44:11.088Z,5.13
2018-05-21T01:46:42.140Z,5.17
2018-05-21T01:49:13.150Z,5.40
2018-05-21T01:51:44.478Z,5.23
2018-05-21T01:54:15.531Z,4.90
2018-05-21T01:56:47.106Z,5.70
2018-05-21T01:59:18.361Z,5.80
2018-05-21T02:01:49.576Z,4.80
2018-05-21T02:04:21.381Z,5.17
2018-05-21T02:06:53.643Z,5.03
2018-05-21T02:09:25.063Z,5.60
2018-05-21T02:11:56.054Z,5.60
2018-05-21T02:14:28.246Z,5.70
2018-05-21T02:16:59.745Z,6.20
2018-05-21T02:19:31.223Z,4.80
2018-05-21T02:22:03.195Z,5.60
2018-05-21T02:24:34.711Z,5.60
2018-05-21T02:27:06.536Z,5.33
2018-05-21T02:29:37.771Z,6.20
2018-05-21T02:32:09.182Z,6.80
2018-05-21T02:34:40.632Z,5.63
2018-05-21T02:37:11.678Z,5.47
2018-05-21T02:39:43.304Z,6.27
2018-05-21T02:42:14.593Z,5.97
2018-05-21T02:44:45.610Z,6.33
2018-05-21T02:47:16.935Z,6.33
2018-05-21T02:49:47.893Z,6.20
2018-05-21T02:52:18.853Z,6.80
2018-05-21T02:54:50.156Z,5.53
2018-05-21T02:57:21.286Z,5.93
2018-05-21T02:59:56.607Z,5.63
2018-05-21T03:02:28.362Z,6.00
2018-05-21T03:05:00.163Z,6.10
2018-05-21T03:07:31.687Z,6.37
2018-05-21T03:10:02.941Z,6.07
2018-05-21T03:12:34.510Z,6.17
2018-05-21T03:15:06.686Z,6.37
2018-05-21T03:17:38.595Z,6.20
2018-05-21T03:20:20.080Z,5.70
2018-05-21T03:22:51.294Z,5.80
2018-05-21T03:25:22.903Z,6.03
2018-05-21T03:27:54.251Z,6.30
2018-05-21T03:30:26.186Z,6.50
2018-05-21T03:32:57.582Z,6.57
2018-05-21T03:35:29.138Z,6.70
2018-05-21T03:38:00.377Z,7.20
2018-05-21T03:40:31.426Z,6.87
2018-05-21T03:43:03.083Z,6.00
2018-05-21T03:45:34.467Z,7.33
2018-05-21T03:48:06.008Z,7.03
2018-05-21T03:50:38.099Z,6.20
2018-05-21T03:53:09.482Z,7.40
2018-05-21T03:55:44.535Z,6.83
2018-05-21T03:58:53.674Z,6.60
2018-05-21T04:01:10.136Z,4.10
2018-05-21T04:01:36.595Z,5.90
2018-05-21T04:03:55.893Z,4.07
2018-05-21T04:04:08.380Z,6.90
2018-05-21T04:06:24.946Z,4.37
2018-05-21T04:06:40.514Z,6.70
2018-05-21T04:08:53.979Z,3.37
2018-05-21T04:09:11.555Z,6.80
2018-05-21T04:11:23.016Z,3.77
2018-05-21T04:11:43.726Z,6.20
2018-05-21T04:13:52.072Z,4.60
2018-05-21T04:14:15.378Z,6.60
2018-05-21T04:16:21.122Z,3.80
2018-05-21T04:16:46.956Z,6.40
2018-05-21T04:18:50.985Z,3.33
2018-05-21T04:19:18.021Z,6.87
2018-05-21T04:21:20.024Z,4.20
2018-05-21T04:21:49.628Z,6.53
2018-05-21T04:23:49.063Z,3.23
2018-05-21T04:24:21.309Z,5.73
2018-05-21T04:26:18.088Z,3.53
2018-05-21T04:26:52.855Z,5.90
2018-05-21T04:28:47.153Z,3.80
2018-05-21T04:29:35.556Z,6.77
2018-05-21T04:31:16.169Z,4.10
2018-05-21T04:32:07.390Z,6.50
2018-05-21T04:33:45.256Z,4.00
2018-05-21T04:34:54.717Z,6.40
2018-05-21T04:36:14.278Z,4.40
2018-05-21T04:37:26.346Z,5.77
2018-05-21T04:38:43.337Z,4.07
2018-05-21T04:39:57.705Z,6.83
2018-05-21T04:41:12.386Z,3.80
2018-05-21T04:42:29.310Z,6.20
2018-05-21T04:43:42.235Z,4.67
2018-05-21T04:45:01.027Z,5.90
2018-05-21T04:46:11.264Z,3.80
2018-05-21T04:47:32.824Z,6.50
2018-05-21T04:48:40.306Z,4.03
2018-05-21T04:50:04.832Z,6.27
2018-05-21T04:51:10.123Z,4.27
2018-05-21T04:52:36.446Z,6.90
2018-05-21T04:53:39.162Z,4.50
2018-05-21T04:55:07.966Z,6.30
2018-05-21T04:56:08.175Z,4.10
2018-05-21T04:57:39.346Z,5.97
2018-05-21T04:58:37.237Z,4.77
2018-05-21T05:00:10.608Z,6.57
2018-05-21T05:01:06.273Z,4.37
2018-05-21T05:02:42.067Z,5.70
2018-05-21T05:03:35.388Z,4.80
2018-05-21T05:05:13.147Z,5.67
2018-05-21T05:06:04.439Z,5.00
2018-05-21T05:07:46.471Z,6.60
2018-05-21T05:08:33.551Z,5.70
2018-05-21T05:10:17.419Z,6.50
2018-05-21T05:11:02.589Z,4.70
2018-05-21T05:12:49.047Z,6.10
2018-05-21T05:13:31.620Z,5.60
2018-05-21T05:15:21.111Z,6.40
2018-05-21T05:16:00.654Z,5.70
2018-05-21T05:17:52.554Z,6.80
2018-05-21T05:18:29.684Z,5.20
2018-05-21T05:20:23.906Z,6.80
2018-05-21T05:20:58.739Z,6.20
2018-05-21T05:22:55.847Z,6.50
2018-05-21T05:23:27.742Z,5.57
2018-05-21T05:25:28.087Z,7.20
2018-05-21T05:25:56.797Z,6.07
2018-05-21T05:27:59.492Z,7.00
2018-05-21T05:28:25.811Z,5.83
2018-05-21T05:30:54.833Z,5.73
2018-05-21T05:33:23.867Z,5.07
2018-05-21T05:35:52.945Z,5.13
2018-05-21T05:38:21.968Z,5.90
2018-05-21T05:40:50.984Z,5.30
2018-05-21T05:43:20.821Z,5.20
2018-05-21T05:45:49.839Z,5.07
2018-05-21T05:48:18.848Z,5.93
2018-05-21T05:50:47.913Z,4.97
2018-05-21T05:53:16.949Z,5.57
2018-05-21T05:55:45.957Z,5.20
2018-05-21T05:58:15.764Z,5.70
2018-05-21T06:00:44.815Z,5.80
2018-05-21T06:03:13.836Z,5.77
2018-05-21T06:05:42.876Z,5.13
2018-05-21T06:08:11.897Z,5.80
2018-05-21T06:10:40.932Z,5.77
2018-05-21T06:12:44.836Z,6.20
2018-05-21T06:13:10.723Z,5.60
2018-05-21T06:15:16.117Z,5.40
2018-05-21T06:15:39.772Z,5.27
2018-05-21T06:17:47.683Z,5.57
2018-05-21T06:18:08.779Z,5.30
2018-05-21T06:20:19.286Z,5.80
2018-05-21T06:20:38.106Z,5.33
2018-05-21T06:22:50.982Z,5.80
2018-05-21T06:23:07.115Z,5.50
2018-05-21T06:25:22.882Z,5.03
2018-05-21T06:25:36.119Z,5.63
2018-05-21T06:27:54.328Z,5.07
2018-05-21T06:28:05.927Z,5.50
2018-05-21T06:30:25.363Z,5.33
2018-05-21T06:30:34.943Z,5.80
2018-05-21T06:32:57.489Z,5.57
2018-05-21T06:33:03.990Z,5.40
2018-05-21T06:35:28.660Z,5.30
2018-05-21T06:35:33.051Z,5.77
2018-05-21T06:38:00.522Z,6.07
2018-05-21T06:38:02.071Z,6.27
2018-05-21T06:40:31.104Z,5.10
2018-05-21T06:40:31.561Z,5.37
2018-05-21T06:43:00.119Z,5.10
2018-05-21T06:43:02.670Z,5.50
2018-05-21T06:45:29.187Z,5.80
2018-05-21T06:45:34.556Z,5.60
2018-05-21T06:47:58.191Z,5.37
2018-05-21T06:48:06.101Z,5.33
2018-05-21T06:50:27.215Z,5.00
2018-05-21T06:50:44.357Z,5.20
2018-05-21T06:52:56.264Z,4.93
2018-05-21T06:53:22.184Z,5.13
2018-05-21T06:55:25.301Z,5.20
2018-05-21T06:55:53.242Z,4.97
2018-05-21T06:57:54.624Z,6.30
2018-05-21T06:58:24.777Z,5.20
2018-05-21T07:00:23.680Z,5.13
2018-05-21T07:00:59.891Z,4.93
2018-05-21T07:02:52.691Z,5.20
2018-05-21T07:03:31.146Z,5.20
2018-05-21T07:05:21.755Z,4.60
2018-05-21T07:06:16.282Z,5.10
2018-05-21T07:07:51.545Z,5.40
2018-05-21T07:08:48.139Z,5.70
2018-05-21T07:10:20.547Z,4.67
2018-05-21T07:11:25.565Z,5.57
2018-05-21T07:12:49.662Z,5.17
2018-05-21T07:13:57.668Z,5.10
2018-05-21T07:15:19.446Z,5.10
2018-05-21T07:16:29.434Z,4.90
2018-05-21T07:17:48.451Z,4.87
2018-05-21T07:19:00.643Z,5.70
2018-05-21T07:20:18.300Z,4.83
2018-05-21T07:21:32.076Z,5.40
2018-05-21T07:22:47.307Z,5.30
2018-05-21T07:24:03.331Z,5.50
2018-05-21T07:25:16.328Z,5.40
2018-05-21T07:26:34.598Z,5.60
2018-05-21T07:27:45.396Z,5.47
2018-05-21T07:29:05.699Z,5.20
2018-05-21T07:30:14.411Z,5.07
2018-05-21T07:31:36.978Z,5.60
2018-05-21T07:32:43.436Z,4.83
2018-05-21T07:34:09.702Z,6.03
2018-05-21T07:35:12.478Z,5.40
2018-05-21T07:36:41.111Z,5.83
2018-05-21T07:37:41.494Z,4.63
2018-05-21T07:39:12.764Z,5.23
2018-05-21T07:40:10.531Z,5.10
2018-05-21T07:41:44.535Z,5.90
2018-05-21T07:42:40.347Z,5.33
2018-05-21T07:44:32.813Z,6.93
2018-05-21T07:45:09.400Z,5.17
2018-05-21T07:47:10.675Z,6.10
2018-05-21T07:47:38.416Z,4.50
2018-05-21T07:49:42.832Z,5.77
2018-05-21T07:50:08.315Z,5.40
2018-05-21T07:52:15.288Z,6.10
2018-05-21T07:52:37.353Z,5.30
2018-05-21T07:54:46.687Z,6.00
2018-05-21T07:55:06.385Z,4.50
2018-05-21T07:57:22.063Z,6.23
2018-05-21T07:57:35.456Z,5.10
2018-05-21T07:59:53.869Z,6.47
2018-05-21T08:02:25.020Z,5.63
2018-05-21T08:04:57.099Z,5.40
2018-05-21T08:07:28.138Z,5.57
2018-05-21T08:10:01.591Z,6.00
2018-05-21T08:12:33.887Z,5.43
2018-05-21T08:15:05.538Z,4.87
2018-05-21T08:17:37.895Z,6.33
2018-05-21T08:20:18.863Z,5.33
2018-05-21T08:22:50.323Z,5.43
2018-05-21T08:25:24.366Z,4.60
2018-05-21T08:27:55.709Z,4.90
2018-05-21T08:30:28.319Z,5.60
2018-05-21T08:33:02.947Z,5.50
2018-05-21T08:35:46.555Z,5.73
2018-05-21T08:38:22.071Z,4.57
2018-05-21T08:40:59.288Z,5.30
2018-05-21T08:43:31.113Z,5.20
2018-05-21T08:46:06.767Z,4.43
2018-05-21T08:48:40.529Z,5.00
2018-05-21T08:54:02.805Z,4.00
2018-05-21T08:56:35.373Z,4.47
2018-05-21T08:59:07.915Z,4.50
2018-05-21T09:01:40.394Z,4.20
2018-05-21T09:04:19.918Z,4.33
2018-05-21T09:06:52.290Z,4.13
2018-05-21T09:09:27.410Z,3.90
2018-05-21T09:12:08.242Z,3.60
2018-05-21T09:14:40.701Z,4.37
2018-05-21T09:17:12.586Z,4.33
2018-05-21T09:23:23.397Z,3.80
2018-05-21T09:25:58.407Z,4.20
2018-05-21T09:28:41.567Z,4.07
2018-05-21T09:36:43.744Z,4.20
2018-05-21T09:39:18.679Z,3.40
2018-05-21T09:41:50.291Z,3.07
2018-05-21T09:44:21.616Z,3.97
2018-05-21T09:46:52.650Z,3.67
2018-05-21T09:49:23.863Z,3.47
2018-05-21T09:51:55.714Z,3.80
2018-05-21T09:54:26.915Z,3.60
2018-05-21T09:56:59.074Z,2.87
2018-05-21T09:59:41.543Z,2.73
2018-05-21T10:02:15.031Z,3.80
2018-05-21T10:04:46.246Z,3.03
2018-05-21T10:07:25.196Z,3.17
2018-05-21T10:09:57.498Z,3.40
2018-05-21T10:12:30.490Z,3.70
2018-05-21T10:15:02.304Z,2.90
2018-05-21T10:17:33.903Z,3.00
2018-05-21T10:20:07.931Z,3.50
2018-05-21T10:22:43.387Z,3.37
2018-05-21T10:25:19.235Z,3.20
2018-05-21T10:27:51.187Z,3.70
2018-05-21T10:30:22.323Z,3.47
2018-05-21T10:32:53.689Z,3.47
2018-05-21T10:38:00.478Z,3.30
2018-05-21T10:40:32.020Z,3.17
2018-05-21T10:43:11.719Z,3.20
2018-05-21T10:46:05.604Z,3.50
2018-05-21T10:48:59.235Z,3.33
2018-05-21T10:51:53.706Z,3.20
2018-05-21T10:54:47.234Z,3.33
2018-05-21T10:57:41.047Z,3.17
2018-05-21T11:00:35.320Z,3.40
2018-05-21T11:03:28.834Z,3.17
2018-05-21T11:06:22.427Z,3.57
2018-05-21T11:09:16.021Z,3.43
2018-05-21T11:12:09.969Z,2.97
2018-05-21T11:15:03.559Z,3.00
2018-05-21T11:17:57.404Z,3.37
2018-05-21T11:20:50.775Z,3.40
2018-05-21T11:23:37.242Z,2.93
2018-05-21T11:26:08.788Z,3.40
2018-05-21T11:28:40.526Z,3.23
2018-05-21T11:31:12.260Z,3.13
2018-05-21T11:33:44.387Z,2.90
2018-05-21T11:36:15.488Z,2.70
2018-05-21T11:38:46.548Z,3.40
2018-05-21T11:41:17.923Z,3.30
2018-05-21T11:43:51.020Z,3.30
2018-05-21T11:46:23.297Z,3.50
2018-05-21T11:48:54.615Z,3.03
2018-05-21T11:51:25.668Z,3.77
2018-05-21T11:53:59.505Z,3.20
2018-05-21T11:56:30.548Z,3.00
2018-05-21T11:59:01.875Z,3.30
2018-05-21T12:01:33.517Z,3.50
2018-05-21T12:04:04.609Z,3.70
2018-05-21T12:06:36.006Z,3.37
2018-05-21T12:09:08.574Z,3.80
2018-05-21T12:11:39.629Z,3.30
2018-05-21T12:14:10.955Z,3.03
2018-05-21T12:16:42.358Z,3.40
2018-05-21T12:19:14.455Z,3.37
2018-05-21T12:21:45.558Z,2.70
2018-05-21T12:24:17.059Z,2.97
2018-05-21T12:26:48.419Z,3.00
2018-05-21T12:29:19.579Z,2.80
2018-05-21T12:31:51.042Z,2.97
2018-05-21T12:34:22.619Z,3.00
2018-05-21T12:36:54.079Z,3.10
2018-05-21T12:39:25.497Z,2.70
2018-05-21T12:41:56.708Z,3.00
2018-05-21T12:44:29.318Z,2.80
2018-05-21T12:47:01.652Z,4.03
2018-05-21T12:49:36.911Z,3.07
2018-05-21T12:52:09.791Z,3.20
2018-05-21T12:54:40.992Z,2.70
2018-05-21T12:57:12.214Z,3.17
2018-05-21T12:59:44.576Z,3.03
2018-05-21T13:02:15.641Z,2.30
2018-05-21T13:04:53.447Z,2.87
2018-05-21T13:07:24.439Z,3.20
2018-05-21T13:09:55.433Z,2.73
2018-05-21T13:12:28.668Z,2.90
2018-05-21T13:15:00.693Z,3.03
2018-05-21T13:17:32.870Z,3.60
2018-05-21T13:20:05.439Z,2.80
2018-05-21T13:22:37.426Z,2.80
2018-05-21T13:25:09.497Z,3.20
2018-05-21T13:27:41.562Z,3.23
2018-05-21T13:30:12.753Z,2.90
2018-05-21T13:32:44.199Z,3.37
2018-05-21T13:35:15.180Z,2.80
2018-05-21T13:37:47.038Z,3.27
2018-05-21T13:40:21.023Z,2.87
2018-05-21T13:42:52.006Z,2.40
2018-05-21T13:45:23.307Z,2.60
2018-05-21T13:47:56.356Z,2.80
2018-05-21T13:50:28.620Z,3.27
2018-05-21T13:53:00.569Z,2.57
2018-05-21T13:55:43.259Z,2.93
2018-05-21T14:01:07.430Z,3.17
2018-05-21T14:03:39.180Z,3.00
2018-05-21T14:06:10.325Z,3.10
2018-05-21T14:08:41.375Z,2.80
2018-05-21T14:11:41.593Z,2.53
2018-05-21T14:14:13.531Z,2.63
2018-05-21T14:16:44.695Z,2.63
2018-05-21T14:23:48.058Z,2.80
2018-05-21T14:26:22.658Z,2.77
2018-05-21T14:28:54.895Z,2.70
2018-05-21T14:31:33.023Z,2.30
2018-05-21T14:36:44.804Z,2.60
2018-05-21T14:39:16.229Z,2.40
2018-05-21T14:41:49.239Z,2.60
2018-05-21T14:44:21.768Z,2.63
2018-05-21T14:46:54.675Z,2.57
2018-05-21T14:49:26.558Z,2.60
2018-05-21T14:51:57.879Z,3.17
2018-05-21T14:54:36.886Z,2.43
2018-05-21T14:57:08.275Z,2.20
2018-05-21T14:59:40.749Z,2.77
2018-05-21T15:01:57.364Z,2.70
2018-05-21T15:02:11.999Z,2.90
2018-05-21T15:04:26.384Z,2.53
2018-05-21T15:04:50.384Z,2.80
2018-05-21T15:06:55.462Z,2.43
2018-05-21T15:07:27.746Z,2.70
2018-05-21T15:09:24.467Z,2.33
2018-05-21T15:09:59.895Z,2.40
2018-05-21T15:11:53.494Z,2.77
2018-05-21T15:12:31.670Z,3.20
2018-05-21T15:14:22.567Z,2.97
2018-05-21T15:15:07.114Z,2.87
2018-05-21T15:16:52.177Z,2.87
2018-05-21T15:17:40.645Z,2.40
2018-05-21T15:19:21.593Z,2.77
2018-05-21T15:20:12.298Z,2.53
2018-05-21T15:21:50.768Z,4.17
2018-05-21T15:22:43.291Z,2.30
2018-05-21T15:24:19.931Z,4.90
2018-05-21T15:25:14.686Z,2.67
2018-05-21T15:26:49.179Z,3.37
2018-05-21T15:27:46.195Z,2.40
2018-05-21T15:29:18.256Z,3.43
2018-05-21T15:30:17.407Z,2.60
2018-05-21T15:31:47.479Z,3.60
2018-05-21T15:32:48.599Z,2.50
2018-05-21T15:34:17.035Z,2.53
2018-05-21T15:35:20.087Z,2.70
2018-05-21T15:36:46.131Z,3.10
2018-05-21T15:37:51.306Z,2.60
2018-05-21T15:39:15.219Z,2.93
2018-05-21T15:40:22.728Z,2.50
2018-05-21T15:41:44.770Z,3.00
2018-05-21T15:42:53.691Z,2.63
2018-05-21T15:44:14.496Z,3.13
2018-05-21T15:45:25.027Z,2.50
2018-05-21T15:46:43.722Z,3.43
2018-05-21T15:47:57.312Z,2.50
2018-05-21T15:49:12.845Z,2.80
2018-05-21T15:50:28.386Z,2.90
2018-05-21T15:51:42.623Z,3.60
2018-05-21T15:52:59.859Z,3.13
2018-05-21T15:54:12.436Z,3.00
2018-05-21T15:55:31.244Z,3.00
2018-05-21T15:56:42.221Z,3.73
2018-05-21T15:58:02.342Z,2.83
2018-05-21T15:59:11.378Z,7.53
2018-05-21T16:00:36.163Z,2.70
2018-05-21T16:01:41.185Z,4.80
2018-05-21T16:04:22.793Z,3.53
2018-05-21T16:05:52.859Z,2.70
2018-05-21T16:06:52.105Z,3.30
2018-05-21T16:08:24.376Z,3.00
2018-05-21T16:09:21.247Z,3.13
2018-05-21T16:10:55.382Z,2.83
2018-05-21T16:11:50.318Z,3.20
2018-05-21T16:13:26.778Z,3.40
2018-05-21T16:14:19.447Z,3.10
2018-05-21T16:15:57.796Z,2.57
2018-05-21T16:16:48.502Z,3.30
2018-05-21T16:18:29.063Z,2.80
2018-05-21T16:19:17.630Z,3.47
2018-05-21T16:21:02.387Z,3.20
2018-05-21T16:21:47.394Z,3.50
2018-05-21T16:23:34.158Z,3.30
2018-05-21T16:24:16.407Z,3.40
2018-05-21T16:26:05.358Z,2.87
2018-05-21T16:26:46.283Z,3.10
2018-05-21T16:28:36.676Z,3.27
2018-05-21T16:29:16.172Z,3.67
2018-05-21T16:31:07.831Z,3.00
2018-05-21T16:31:45.174Z,3.90
2018-05-21T16:33:39.429Z,4.13
2018-05-21T16:34:14.223Z,3.17
2018-05-21T16:36:10.506Z,2.67
2018-05-21T16:36:43.248Z,3.60
2018-05-21T16:38:41.534Z,2.87
2018-05-21T16:39:12.292Z,3.63
2018-05-21T16:41:13.003Z,3.00
2018-05-21T16:41:42.026Z,2.97
2018-05-21T16:43:44.292Z,2.60
2018-05-21T16:44:11.126Z,3.37
2018-05-21T16:46:17.364Z,3.50
2018-05-21T16:46:40.169Z,3.60
2018-05-21T16:48:48.796Z,3.20
2018-05-21T16:49:09.184Z,3.60
2018-05-21T16:51:20.155Z,3.00
2018-05-21T16:51:38.240Z,3.40
2018-05-21T16:53:51.530Z,3.07
2018-05-21T16:54:07.340Z,3.37
2018-05-21T16:56:22.558Z,2.70
2018-05-21T16:56:36.307Z,3.20
2018-05-21T16:58:53.638Z,5.03
2018-05-21T16:59:06.128Z,3.47
2018-05-21T17:01:25.119Z,3.50
2018-05-21T17:01:35.139Z,3.07
2018-05-21T17:03:56.145Z,3.30
2018-05-21T17:04:04.187Z,3.20
2018-05-21T17:06:27.787Z,4.47
2018-05-21T17:06:33.204Z,3.60
2018-05-21T17:08:59.306Z,5.70
2018-05-21T17:09:02.271Z,3.00
2018-05-21T17:11:30.565Z,4.23
2018-05-21T17:11:31.308Z,3.20
2018-05-21T17:14:00.324Z,3.20
2018-05-21T17:14:02.028Z,4.63
2018-05-21T17:16:29.389Z,3.67
2018-05-21T17:16:33.216Z,5.63
2018-05-21T17:18:58.399Z,3.00
2018-05-21T17:19:04.455Z,3.67
2018-05-21T17:21:27.414Z,2.80
2018-05-21T17:21:35.904Z,3.73
2018-05-21T17:23:56.484Z,3.03
2018-05-21T17:24:08.427Z,3.97
2018-05-21T17:26:25.504Z,3.70
2018-05-21T17:26:39.699Z,3.27
2018-05-21T17:28:54.526Z,3.37
2018-05-21T17:29:11.547Z,3.20
2018-05-21T17:31:23.568Z,3.20
2018-05-21T17:31:43.111Z,3.80
2018-05-21T17:33:52.619Z,3.57
2018-05-21T17:34:14.858Z,3.00
2018-05-21T17:36:21.627Z,3.43
2018-05-21T17:36:46.102Z,3.00
2018-05-21T17:38:50.679Z,3.60
2018-05-21T17:39:17.197Z,3.17
2018-05-21T17:41:19.699Z,3.10
2018-05-21T17:41:48.804Z,2.90
2018-05-21T17:43:48.752Z,3.63
2018-05-21T17:44:20.340Z,3.10
2018-05-21T17:46:17.763Z,3.60
2018-05-21T17:46:55.422Z,3.20
2018-05-21T17:48:46.770Z,3.07
2018-05-21T17:49:26.764Z,3.20
2018-05-21T17:51:19.645Z,3.23
2018-05-21T17:51:57.799Z,3.67
2018-05-21T17:53:59.828Z,3.10
2018-05-21T17:54:28.910Z,3.23
2018-05-21T17:56:29.641Z,3.00
2018-05-21T17:57:00.223Z,3.00
2018-05-21T17:58:58.646Z,2.83
2018-05-21T17:59:31.188Z,2.80
2018-05-21T18:01:27.703Z,3.90
2018-05-21T18:02:02.852Z,3.30
2018-05-21T18:03:56.737Z,3.37
2018-05-21T18:04:34.307Z,3.20
2018-05-21T18:06:28.450Z,2.90
2018-05-21T18:07:05.446Z,3.33
2018-05-21T18:08:58.210Z,3.53
2018-05-21T18:09:36.906Z,3.07
2018-05-21T18:11:31.907Z,2.80
2018-05-21T18:12:12.892Z,2.87
2018-05-21T18:14:02.144Z,3.17
2018-05-21T18:14:54.859Z,3.50
2018-05-21T18:16:31.459Z,2.67
2018-05-21T18:17:26.731Z,3.27
2018-05-21T18:19:06.078Z,2.60
2018-05-21T18:19:57.939Z,3.47
2018-05-21T18:21:35.279Z,3.23
2018-05-21T18:22:29.682Z,3.00
2018-05-21T18:24:04.546Z,3.10
2018-05-21T18:25:11.003Z,3.70
2018-05-21T18:26:37.171Z,2.83
2018-05-21T18:27:42.791Z,3.33
2018-05-21T18:29:09.892Z,2.97
2018-05-21T18:30:14.215Z,3.07
2018-05-21T18:31:42.951Z,3.50
2018-05-21T18:32:48.817Z,3.13
2018-05-21T18:34:12.859Z,2.80
2018-05-21T18:35:22.253Z,3.90
2018-05-21T18:36:41.899Z,2.97
2018-05-21T18:37:53.371Z,2.83
2018-05-21T18:39:12.401Z,2.97
2018-05-21T18:40:25.310Z,3.47
2018-05-21T18:41:41.837Z,3.50
2018-05-21T18:42:57.103Z,3.70
2018-05-21T18:44:10.850Z,2.90
2018-05-21T18:45:28.312Z,3.40
2018-05-21T18:46:39.872Z,2.97
2018-05-21T18:47:59.346Z,4.10
2018-05-21T18:49:08.940Z,3.07
2018-05-21T18:50:31.749Z,3.53
2018-05-21T18:51:37.964Z,3.13
2018-05-21T18:53:12.967Z,3.37
2018-05-21T18:54:07.015Z,3.03
2018-05-21T18:55:44.587Z,3.20
2018-05-21T18:56:36.056Z,3.30
2018-05-21T18:58:19.267Z,3.70
2018-05-21T18:59:05.059Z,2.80
2018-05-21T19:00:51.813Z,3.20
2018-05-21T19:01:34.119Z,3.20
2018-05-21T19:03:28.079Z,3.83
2018-05-21T19:04:03.125Z,2.67
2018-05-21T19:06:00.557Z,3.80
2018-05-21T19:06:32.159Z,3.23
2018-05-21T19:08:32.965Z,3.53
2018-05-21T19:09:01.944Z,3.13
2018-05-21T19:11:04.638Z,3.43
2018-05-21T19:11:31.121Z,3.40
2018-05-21T19:13:36.062Z,3.27
2018-05-21T19:14:00.136Z,3.07
2018-05-21T19:16:07.429Z,3.27
2018-05-21T19:16:29.254Z,3.30
2018-05-21T19:18:41.027Z,3.90
2018-05-21T19:18:58.413Z,2.87
2018-05-21T19:21:16.214Z,3.30
2018-05-21T19:21:27.428Z,2.80
2018-05-21T19:23:50.689Z,3.83
2018-05-21T19:23:56.467Z,3.40
2018-05-21T19:26:21.820Z,3.70
2018-05-21T19:26:26.322Z,3.20
2018-05-21T19:28:53.868Z,3.43
2018-05-21T19:28:55.368Z,3.80
2018-05-21T19:31:24.374Z,3.43
2018-05-21T19:31:25.400Z,3.20
2018-05-21T19:33:53.424Z,3.43
2018-05-21T19:34:26.939Z,3.83
2018-05-21T19:36:22.456Z,3.23
2018-05-21T19:37:05.331Z,3.50
2018-05-21T19:38:51.800Z,3.20
2018-05-21T19:39:36.492Z,3.70
2018-05-21T19:41:21.908Z,3.30
2018-05-21T19:42:08.048Z,3.37
2018-05-21T19:43:51.031Z,3.37
2018-05-21T19:44:41.229Z,3.30
2018-05-21T19:46:20.046Z,3.37
2018-05-21T19:47:12.318Z,3.20
2018-05-21T19:48:49.127Z,3.27
2018-05-21T19:49:46.880Z,3.40
2018-05-21T19:51:19.090Z,3.00
2018-05-21T19:52:19.223Z,3.30
2018-05-21T19:53:48.101Z,2.60
2018-05-21T19:54:50.845Z,3.40
2018-05-21T19:56:17.634Z,2.70
2018-05-21T19:57:23.686Z,3.60
2018-05-21T19:58:46.696Z,3.10
2018-05-21T19:59:55.523Z,3.50
2018-05-21T20:01:15.724Z,3.17
2018-05-21T20:02:27.047Z,3.47
2018-05-21T20:03:44.755Z,3.10
2018-05-21T20:04:58.899Z,3.40
2018-05-21T20:06:13.854Z,2.83
2018-05-21T20:07:30.523Z,3.30
2018-05-21T20:08:42.817Z,2.50
2018-05-21T20:10:05.943Z,3.83
2018-05-21T20:11:14.215Z,2.83
2018-05-21T20:12:37.470Z,3.00
2018-05-21T20:13:43.928Z,3.27
2018-05-21T20:15:09.500Z,4.10
2018-05-21T20:16:12.887Z,3.00
2018-05-21T20:17:41.051Z,4.03
2018-05-21T20:18:41.926Z,2.87
2018-05-21T20:20:12.534Z,3.70
2018-05-21T20:21:10.953Z,3.00
2018-05-21T20:22:43.820Z,2.87
2018-05-21T20:23:40.007Z,2.70
2018-05-21T20:25:15.401Z,3.30
2018-05-21T20:26:09.027Z,2.63
2018-05-21T20:27:46.965Z,3.40
2018-05-21T20:28:38.070Z,2.73
2018-05-21T20:30:18.171Z,3.30
2018-05-21T20:31:07.091Z,3.30
2018-05-21T20:32:49.271Z,3.80
2018-05-21T20:33:36.147Z,2.90
2018-05-21T20:35:20.673Z,4.17
2018-05-21T20:36:05.187Z,2.83
2018-05-21T20:37:51.961Z,3.53
2018-05-21T20:38:34.239Z,3.07
2018-05-21T20:40:25.939Z,3.47
2018-05-21T20:41:03.248Z,2.93
2018-05-21T20:42:57.023Z,3.00
2018-05-21T20:43:32.303Z,2.93
2018-05-21T20:45:28.585Z,3.50
2018-05-21T20:46:02.087Z,2.90
2018-05-21T20:48:00.248Z,3.27
2018-05-21T20:48:31.106Z,2.67
2018-05-21T20:50:31.335Z,3.80
2018-05-21T20:51:00.933Z,2.60
2018-05-21T20:53:03.367Z,2.77
2018-05-21T20:53:29.977Z,2.80
2018-05-21T20:55:34.386Z,4.00
2018-05-21T20:55:59.000Z,2.13
2018-05-21T20:58:05.707Z,3.47
2018-05-21T20:58:28.818Z,2.53
2018-05-21T21:00:39.666Z,3.20
2018-05-21T21:00:57.823Z,2.63
2018-05-21T21:03:10.778Z,2.90
2018-05-21T21:03:26.900Z,2.87
2018-05-21T21:05:45.045Z,3.60
2018-05-21T21:05:56.698Z,2.30
2018-05-21T21:08:16.020Z,3.27
2018-05-21T21:08:25.709Z,2.53
2018-05-21T21:10:47.931Z,3.10
2018-05-21T21:10:55.520Z,2.20
2018-05-21T21:13:22.000Z,3.30
2018-05-21T21:13:24.548Z,2.77
2018-05-21T21:15:53.564Z,2.80
2018-05-21T21:15:53.928Z,3.30
2018-05-21T21:18:22.612Z,2.60
2018-05-21T21:18:26.005Z,3.07
2018-05-21T21:20:51.623Z,2.40
2018-05-21T21:20:57.815Z,3.80
2018-05-21T21:23:20.688Z,2.10
2018-05-21T21:23:29.008Z,3.03
2018-05-21T21:25:49.700Z,2.60
2018-05-21T21:26:00.363Z,3.17
2018-05-21T21:28:18.714Z,2.40
2018-05-21T21:28:34.160Z,2.97
2018-05-21T21:30:47.723Z,2.50
2018-05-21T21:31:07.896Z,3.30
2018-05-21T21:33:16.778Z,3.63
2018-05-21T21:33:39.196Z,3.27
2018-05-21T21:35:45.816Z,2.60
2018-05-21T21:36:10.713Z,2.93
2018-05-21T21:38:14.833Z,2.30
2018-05-21T21:38:42.271Z,3.53
2018-05-21T21:40:43.868Z,2.27
2018-05-21T21:41:13.568Z,3.20
2018-05-21T21:43:12.871Z,2.40
2018-05-21T21:43:45.107Z,3.17
2018-05-21T21:45:41.927Z,2.60
2018-05-21T21:46:16.088Z,2.97
2018-05-21T21:48:11.700Z,2.47
2018-05-21T21:48:47.394Z,2.77
2018-05-21T21:50:40.720Z,2.50
2018-05-21T21:51:18.789Z,3.10
2018-05-21T21:53:10.532Z,2.50
2018-05-21T21:53:50.102Z,2.83
2018-05-21T21:55:40.343Z,2.90
2018-05-21T21:56:21.707Z,3.40
2018-05-21T21:58:10.140Z,2.60
2018-05-21T21:58:52.890Z,3.80
2018-05-21T22:01:35.286Z,2.80
2018-05-21T22:04:06.599Z,2.50
2018-05-21T22:06:37.902Z,3.17
2018-05-21T22:09:09.694Z,3.00
2018-05-21T22:11:42.126Z,3.07
2018-05-21T22:14:13.176Z,3.03
2018-05-21T22:16:44.192Z,3.00
2018-05-21T22:19:15.558Z,2.60
2018-05-21T22:21:46.527Z,2.47
2018-05-21T22:24:17.537Z,3.23
2018-05-21T22:26:48.843Z,3.17
2018-05-21T22:29:19.910Z,2.70
2018-05-21T22:31:51.417Z,3.23
2018-05-21T22:34:22.687Z,2.80
2018-05-21T22:36:54.107Z,2.60
2018-05-21T22:39:25.097Z,2.80
2018-05-21T22:41:56.359Z,2.93
2018-05-21T22:44:27.567Z,3.20
2018-05-21T22:46:58.556Z,3.23
2018-05-21T22:49:29.843Z,3.37
2018-05-21T22:52:00.829Z,3.60
2018-05-21T22:54:38.796Z,2.60
2018-05-21T22:57:14.892Z,2.73
2018-05-21T22:59:50.718Z,3.10
2018-05-21T23:02:22.534Z,3.33
2018-05-21T23:04:54.047Z,2.83
2018-05-21T23:07:24.947Z,3.47
2018-05-21T23:09:56.979Z,2.70
2018-05-21T23:12:27.982Z,3.10
2018-05-21T23:14:59.302Z,3.27
2018-05-21T23:17:33.355Z,2.80
2018-05-21T23:20:04.397Z,3.00
2018-05-21T23:25:23.771Z,3.20
2018-05-21T23:27:55.365Z,2.90
2018-05-21T23:30:26.871Z,2.30
2018-05-21T23:32:58.771Z,3.33
2018-05-21T23:35:30.047Z,3.10
2018-05-21T23:38:01.848Z,3.20
2018-05-21T23:50:08.327Z,3.20
2018-05-21T23:52:39.620Z,3.40
2018-05-21T23:55:10.643Z,3.13
2018-05-21T23:57:42.395Z,3.57
